RÉSULTATS    La Virée des Galopins - Édition du 22/07/2018


Vous pouvez changer la distance ici.

Vous pouvez changer la distance ici.

Classement PDF Général Classement PDF Alphabétique /results/<span class='glyphicon glyphicon-picture'></span> Classement Temps Réel - Temps Puce

336 participants - Femmes - 173 Hommes
45 licenciés (13%) - 291 non-licenciés (87%)

Temps moyen : 00:35:01




Pos. Temps Nom - Prénom Club Dossard Catégorie km/h
68 00:29:32 ROYAU Noemie LES DEJANTES 2003 CAF (1 / 9) 12.1
87 00:30:39 RAULO Naomi ATHLE LESPARRE MEDOC SAM 1997 CAF (2 / 9) 11.7
124 00:33:03 PEU Emma 2872 CAF (3 / 9) 10.8
128 00:33:07 LACROIX Clarisse 2524 CAF (4 / 9) 10.8
132 00:33:21 ALLAIRE Lucie 2572 CAF (5 / 9) 10.7
139 00:33:36 FONTAINE Mathilde LES SUMGRAISSE BODIES 2268 CAF (6 / 9) 10.7
206 00:37:13 EYMOND Anais 6043 CAF (7 / 9) 9.6
209 00:37:29 VANNESSON Maeva 2269 CAF (8 / 9) 9.6
241 00:38:48 LOBATO Emma 2085 CAF (9 / 9) 9.2
12 00:22:44 SANTINI Alexandre 2740 CAM (1 / 17) 15.8
64 00:28:58 MARCHAL DOMBRAT Antoine 1901 CAM (10 / 17) 12.4
69 00:29:37 BONNY Sofiane 2223 CAM (11 / 17) 12.1
71 00:29:41 SALINAS PERIAGES Carlos manuel 2255 CAM (12 / 17) 12.1
80 00:30:16 LE BRAS Goulwen CADETS DE BAINS SUR OUST 2020 CAM (13 / 17) 11.8
99 00:31:29 JACQUET Theo 2210 CAM (14 / 17) 11.4
102 00:31:52 LACROIX Emmanuel 2191 CAM (15 / 17) 11.3
125 00:33:04 HERBIN Gregoire 2095 CAM (16 / 17) 10.8
196 00:36:49 PINGUET Cedric 1923 CAM (17 / 17) 9.7
19 00:24:27 ABRAHAM Matheo CLUB IBM FRANCE 2018 CAM (2 / 17) 14.7
24 00:25:19 BOUSCAUD Quentin 2254 CAM (3 / 17) 14.2
27 00:25:30 QUETARD Tom L'AMELIE C'EST LA VIE 2179 CAM (4 / 17) 14.1
35 00:26:12 DUPOUY Thomas 3021 CAM (5 / 17) 13.7
40 00:26:37 ROUSSEAU Mathias 2531 CAM (6 / 17) 13.5
43 00:26:53 DELBERT Paul 2217 CAM (7 / 17) 13.3
49 00:27:49 FRIAND Bastien 2140 CAM (8 / 17) 12.9